sensor_id;sensor_type;location;lat;lon;timestamp;pressure;altitude;pressure_sealevel;temperature;humidity
75424;BME280;64005;55.160;36.002;2023-07-20T00:02:14;97962.13;;;12.19;78.82
75424;BME280;64005;55.160;36.002;2023-07-20T00:04:42;97964.09;;;12.19;79.00
75424;BME280;64005;55.160;36.002;2023-07-20T00:07:09;97964.47;;;12.17;79.42
75424;BME280;64005;55.160;36.002;2023-07-20T00:09:37;97954.88;;;12.15;79.30
75424;BME280;64005;55.160;36.002;2023-07-20T00:12:07;97958.03;;;12.13;79.20
75424;BME280;64005;55.160;36.002;2023-07-20T00:14:35;97961.63;;;12.14;79.02
75424;BME280;64005;55.160;36.002;2023-07-20T00:17:02;97959.66;;;12.14;79.62
75424;BME280;64005;55.160;36.002;2023-07-20T00:19:30;97967.19;;;12.14;79.22
75424;BME280;64005;55.160;36.002;2023-07-20T00:21:58;97963.59;;;12.13;79.46
75424;BME280;64005;55.160;36.002;2023-07-20T00:24:25;97962.78;;;12.13;79.42
75424;BME280;64005;55.160;36.002;2023-07-20T00:26:53;97962.78;;;12.13;79.23
75424;BME280;64005;55.160;36.002;2023-07-20T00:29:22;97962.34;;;12.11;79.64
75424;BME280;64005;55.160;36.002;2023-07-20T00:31:49;97965.59;;;12.13;78.97
75424;BME280;64005;55.160;36.002;2023-07-20T00:34:17;97959.56;;;12.11;79.37
75424;BME280;64005;55.160;36.002;2023-07-20T00:36:44;97961.94;;;12.09;79.15
75424;BME280;64005;55.160;36.002;2023-07-20T00:39:12;97964.28;;;12.07;79.28
75424;BME280;64005;55.160;36.002;2023-07-20T00:41:39;97963.03;;;12.04;79.41
75424;BME280;64005;55.160;36.002;2023-07-20T00:44:07;97967.38;;;12.02;79.36
75424;BME280;64005;55.160;36.002;2023-07-20T00:46:36;97968.56;;;12.01;79.02
75424;BME280;64005;55.160;36.002;2023-07-20T00:49:04;97967.31;;;11.98;79.17
75424;BME280;64005;55.160;36.002;2023-07-20T00:51:32;97965.28;;;11.95;79.48
75424;BME280;64005;55.160;36.002;2023-07-20T00:53:59;97966.09;;;11.96;79.17
75424;BME280;64005;55.160;36.002;2023-07-20T00:56:27;97966.44;;;11.94;79.30
75424;BME280;64005;55.160;36.002;2023-07-20T00:58:54;97950.75;;;11.86;79.50
75424;BME280;64005;55.160;36.002;2023-07-20T01:01:22;97964.38;;;11.91;79.56
75424;BME280;64005;55.160;36.002;2023-07-20T01:03:51;97967.56;;;11.89;79.45
75424;BME280;64005;55.160;36.002;2023-07-20T01:06:26;97969.09;;;11.87;79.12
75424;BME280;64005;55.160;36.002;2023-07-20T01:09:05;97970.63;;;11.84;79.90
75424;BME280;64005;55.160;36.002;2023-07-20T01:11:46;97966.63;;;11.82;79.22
75424;BME280;64005;55.160;36.002;2023-07-20T01:14:17;97969.03;;;11.83;79.85
75424;BME280;64005;55.160;36.002;2023-07-20T01:16:45;97965.06;;;11.84;79.45
75424;BME280;64005;55.160;36.002;2023-07-20T01:19:15;97953.72;;;11.74;79.42
75424;BME280;64005;55.160;36.002;2023-07-20T01:21:47;97967.28;;;11.75;79.82
75424;BME280;64005;55.160;36.002;2023-07-20T01:24:48;97974.09;;;11.78;79.44
75424;BME280;64005;55.160;36.002;2023-07-20T01:27:41;97973.69;;;11.76;79.63
75424;BME280;64005;55.160;36.002;2023-07-20T01:30:50;97973.56;;;11.72;79.49
75424;BME280;64005;55.160;36.002;2023-07-20T01:33:22;97974.69;;;11.68;79.83
75424;BME280;64005;55.160;36.002;2023-07-20T01:35:54;97966.69;;;11.66;79.73
75424;BME280;64005;55.160;36.002;2023-07-20T01:38:23;97904.19;;;11.25;79.65
75424;BME280;64005;55.160;36.002;2023-07-20T01:40:51;97972.38;;;11.73;79.67
75424;BME280;64005;55.160;36.002;2023-07-20T01:43:19;97966.50;;;11.75;79.68
75424;BME280;64005;55.160;36.002;2023-07-20T01:45:46;97971.25;;;11.74;79.59
75424;BME280;64005;55.160;36.002;2023-07-20T01:48:14;97976.47;;;11.76;79.17
75424;BME280;64005;55.160;36.002;2023-07-20T01:50:43;97980.84;;;11.77;79.10
75424;BME280;64005;55.160;36.002;2023-07-20T01:53:11;97980.84;;;11.77;79.13
75424;BME280;64005;55.160;36.002;2023-07-20T01:55:39;97974.91;;;11.78;79.27
75424;BME280;64005;55.160;36.002;2023-07-20T01:58:06;97975.72;;;11.79;79.25
75424;BME280;64005;55.160;36.002;2023-07-20T02:00:34;97986.94;;;11.82;79.22
75424;BME280;64005;55.160;36.002;2023-07-20T02:03:01;97992.94;;;11.84;79.24
75424;BME280;64005;55.160;36.002;2023-07-20T02:05:29;97994.19;;;11.87;79.56
75424;BME280;64005;55.160;36.002;2023-07-20T02:07:58;97989.06;;;11.89;79.06
75424;BME280;64005;55.160;36.002;2023-07-20T02:10:25;98003.03;;;11.92;79.03
75424;BME280;64005;55.160;36.002;2023-07-20T02:12:53;97986.75;;;11.94;79.20
75424;BME280;64005;55.160;36.002;2023-07-20T02:15:21;97985.66;;;11.99;78.93
75424;BME280;64005;55.160;36.002;2023-07-20T02:17:49;97990.03;;;12.00;78.95
75424;BME280;64005;55.160;36.002;2023-07-20T02:20:16;97982.94;;;12.03;79.06
75424;BME280;64005;55.160;36.002;2023-07-20T02:22:46;97987.75;;;12.06;78.81
75424;BME280;64005;55.160;36.002;2023-07-20T02:25:15;97985.06;;;12.09;79.05
75424;BME280;64005;55.160;36.002;2023-07-20T02:27:42;97985.91;;;12.13;78.93
75424;BME280;64005;55.160;36.002;2023-07-20T02:30:10;97980.38;;;12.17;78.52
75424;BME280;64005;55.160;36.002;2023-07-20T02:32:38;97986.84;;;12.21;78.25
75424;BME280;64005;55.160;36.002;2023-07-20T02:35:07;97977.66;;;12.20;78.76
75424;BME280;64005;55.160;36.002;2023-07-20T02:37:34;97988.19;;;12.30;78.53
75424;BME280;64005;55.160;36.002;2023-07-20T02:40:03;97993.84;;;12.34;78.11
75424;BME280;64005;55.160;36.002;2023-07-20T02:42:33;97992.66;;;12.35;78.53
75424;BME280;64005;55.160;36.002;2023-07-20T02:45:01;97989.56;;;12.40;78.45
75424;BME280;64005;55.160;36.002;2023-07-20T02:47:30;97994.47;;;12.47;78.15
75424;BME280;64005;55.160;36.002;2023-07-20T02:49:58;97985.41;;;12.53;77.80
75424;BME280;64005;55.160;36.002;2023-07-20T02:52:25;97991.69;;;12.99;77.23
75424;BME280;64005;55.160;36.002;2023-07-20T02:54:53;97993.19;;;13.83;75.75
75424;BME280;64005;55.160;36.002;2023-07-20T02:57:20;97991.47;;;14.45;73.97
75424;BME280;64005;55.160;36.002;2023-07-20T02:59:49;97993.59;;;15.17;72.54
75424;BME280;64005;55.160;36.002;2023-07-20T03:02:17;98005.16;;;15.81;71.00
75424;BME280;64005;55.160;36.002;2023-07-20T03:04:44;97998.88;;;16.37;69.56
75424;BME280;64005;55.160;36.002;2023-07-20T03:07:12;98002.56;;;16.80;68.65
75424;BME280;64005;55.160;36.002;2023-07-20T03:09:39;98008.53;;;17.21;67.51
75424;BME280;64005;55.160;36.002;2023-07-20T03:12:07;98006.03;;;17.62;66.06
75424;BME280;64005;55.160;36.002;2023-07-20T03:14:35;98009.13;;;17.93;65.35
75424;BME280;64005;55.160;36.002;2023-07-20T03:17:04;98019.97;;;17.98;64.19
75424;BME280;64005;55.160;36.002;2023-07-20T03:19:32;98021.84;;;18.22;63.79
75424;BME280;64005;55.160;36.002;2023-07-20T03:22:00;98022.56;;;18.40;62.83
75424;BME280;64005;55.160;36.002;2023-07-20T03:24:27;98024.47;;;18.61;62.37
75424;BME280;64005;55.160;36.002;2023-07-20T03:26:54;98032.06;;;18.68;61.93
75424;BME280;64005;55.160;36.002;2023-07-20T03:29:22;98028.25;;;18.88;61.12
75424;BME280;64005;55.160;36.002;2023-07-20T03:31:50;98032.53;;;19.07;60.54
75424;BME280;64005;55.160;36.002;2023-07-20T03:34:18;98039.84;;;19.01;60.21
75424;BME280;64005;55.160;36.002;2023-07-20T03:36:46;98041.75;;;19.11;59.55
75424;BME280;64005;55.160;36.002;2023-07-20T03:39:13;98040.94;;;19.11;59.65
75424;BME280;64005;55.160;36.002;2023-07-20T03:41:41;98046.13;;;19.16;59.13
75424;BME280;64005;55.160;36.002;2023-07-20T03:44:08;98046.47;;;19.25;58.54
75424;BME280;64005;55.160;36.002;2023-07-20T03:46:36;98052.00;;;19.35;58.29
75424;BME280;64005;55.160;36.002;2023-07-20T03:49:03;98047.94;;;19.36;58.09
75424;BME280;64005;55.160;36.002;2023-07-20T03:51:33;98047.72;;;19.61;57.90
75424;BME280;64005;55.160;36.002;2023-07-20T03:54:01;98042.00;;;19.68;57.26
75424;BME280;64005;55.160;36.002;2023-07-20T03:56:28;98042.44;;;19.67;57.13
75424;BME280;64005;55.160;36.002;2023-07-20T03:59:00;98040.50;;;19.60;57.06
75424;BME280;64005;55.160;36.002;2023-07-20T04:01:27;98051.00;;;19.60;57.23
75424;BME280;64005;55.160;36.002;2023-07-20T04:03:54;98050.38;;;19.75;56.83
75424;BME280;64005;55.160;36.002;2023-07-20T04:06:22;98052.59;;;19.95;56.63
75424;BME280;64005;55.160;36.002;2023-07-20T04:08:51;98052.13;;;20.00;56.37
75424;BME280;64005;55.160;36.002;2023-07-20T04:11:18;98052.69;;;19.88;56.59
75424;BME280;64005;55.160;36.002;2023-07-20T04:13:46;98055.16;;;19.82;56.69
75424;BME280;64005;55.160;36.002;2023-07-20T04:16:13;98053.28;;;19.72;56.67
75424;BME280;64005;55.160;36.002;2023-07-20T04:18:41;98043.91;;;19.37;56.94
75424;BME280;64005;55.160;36.002;2023-07-20T04:21:08;98050.31;;;19.00;57.43
75424;BME280;64005;55.160;36.002;2023-07-20T04:23:37;98053.19;;;18.27;58.63
75424;BME280;64005;55.160;36.002;2023-07-20T04:26:06;98062.25;;;17.80;59.72
75424;BME280;64005;55.160;36.002;2023-07-20T04:28:33;98041.81;;;17.47;60.85
75424;BME280;64005;55.160;36.002;2023-07-20T04:31:09;98051.09;;;17.34;61.29
75424;BME280;64005;55.160;36.002;2023-07-20T04:33:38;98049.88;;;17.17;61.52
75424;BME280;64005;55.160;36.002;2023-07-20T04:36:06;98049.91;;;17.06;61.87
75424;BME280;64005;55.160;36.002;2023-07-20T04:38:35;98052.72;;;16.92;62.38
75424;BME280;64005;55.160;36.002;2023-07-20T04:41:02;98050.69;;;16.82;63.06
75424;BME280;64005;55.160;36.002;2023-07-20T04:43:31;98053.50;;;16.68;63.30
75424;BME280;64005;55.160;36.002;2023-07-20T04:45:59;98051.84;;;16.53;63.93
75424;BME280;64005;55.160;36.002;2023-07-20T04:48:26;98051.44;;;16.40;64.54
75424;BME280;64005;55.160;36.002;2023-07-20T04:50:54;98044.22;;;16.50;64.32
75424;BME280;64005;55.160;36.002;2023-07-20T04:53:21;98043.41;;;16.56;64.23
75424;BME280;64005;55.160;36.002;2023-07-20T04:55:49;98045.06;;;16.64;64.56
75424;BME280;64005;55.160;36.002;2023-07-20T04:58:18;98048.28;;;16.63;64.37
75424;BME280;64005;55.160;36.002;2023-07-20T05:00:48;98043.84;;;16.58;64.37
75424;BME280;64005;55.160;36.002;2023-07-20T05:03:15;98059.94;;;16.68;64.51
75424;BME280;64005;55.160;36.002;2023-07-20T05:05:44;98052.69;;;16.78;64.36
75424;BME280;64005;55.160;36.002;2023-07-20T05:08:11;98043.50;;;16.88;64.34
75424;BME280;64005;55.160;36.002;2023-07-20T05:10:39;98047.06;;;16.96;64.20
75424;BME280;64005;55.160;36.002;2023-07-20T05:13:06;98048.31;;;16.88;64.09
75424;BME280;64005;55.160;36.002;2023-07-20T05:15:33;98039.88;;;16.95;64.40
75424;BME280;64005;55.160;36.002;2023-07-20T05:18:03;98048.28;;;17.05;64.31
75424;BME280;64005;55.160;36.002;2023-07-20T05:20:30;98047.47;;;17.16;64.17
75424;BME280;64005;55.160;36.002;2023-07-20T05:22:59;98045.88;;;17.18;64.13
75424;BME280;64005;55.160;36.002;2023-07-20T05:25:27;98045.06;;;17.28;63.44
75424;BME280;64005;55.160;36.002;2023-07-20T05:27:54;98044.66;;;17.26;63.76
75424;BME280;64005;55.160;36.002;2023-07-20T05:30:22;98046.25;;;17.34;63.63
75424;BME280;64005;55.160;36.002;2023-07-20T05:32:49;98048.25;;;17.44;63.32
75424;BME280;64005;55.160;36.002;2023-07-20T05:35:21;98053.81;;;17.55;63.35
75424;BME280;64005;55.160;36.002;2023-07-20T05:37:49;98051.41;;;17.57;62.97
75424;BME280;64005;55.160;36.002;2023-07-20T05:40:16;98051.03;;;17.62;62.91
75424;BME280;64005;55.160;36.002;2023-07-20T05:42:45;98053.81;;;17.73;62.79
75424;BME280;64005;55.160;36.002;2023-07-20T05:45:14;98047.78;;;17.78;62.69
75424;BME280;64005;55.160;36.002;2023-07-20T05:47:41;98052.97;;;17.86;62.48
75424;BME280;64005;55.160;36.002;2023-07-20T05:50:10;98047.25;;;18.04;62.40
75424;BME280;64005;55.160;36.002;2023-07-20T05:52:39;98049.97;;;18.22;62.00
75424;BME280;64005;55.160;36.002;2023-07-20T05:55:07;98056.00;;;18.24;61.29
75424;BME280;64005;55.160;36.002;2023-07-20T05:57:35;98054.00;;;18.28;61.41
75424;BME280;64005;55.160;36.002;2023-07-20T06:00:06;98053.19;;;18.27;61.81
75424;BME280;64005;55.160;36.002;2023-07-20T06:02:34;98050.75;;;18.30;61.82
75424;BME280;64005;55.160;36.002;2023-07-20T06:05:02;98058.41;;;18.33;61.50
75424;BME280;64005;55.160;36.002;2023-07-20T06:07:29;98057.50;;;18.43;61.58
75424;BME280;64005;55.160;36.002;2023-07-20T06:09:58;98060.28;;;18.53;61.11
75424;BME280;64005;55.160;36.002;2023-07-20T06:12:26;98055.84;;;18.59;60.72
75424;BME280;64005;55.160;36.002;2023-07-20T06:14:54;98047.31;;;18.74;60.29
75424;BME280;64005;55.160;36.002;2023-07-20T06:17:21;98044.38;;;18.84;60.31
75424;BME280;64005;55.160;36.002;2023-07-20T06:19:48;98049.94;;;18.95;59.66
75424;BME280;64005;55.160;36.002;2023-07-20T06:22:16;98051.22;;;18.87;59.34
75424;BME280;64005;55.160;36.002;2023-07-20T06:24:43;98051.53;;;18.99;59.39
75424;BME280;64005;55.160;36.002;2023-07-20T06:27:12;98046.13;;;19.19;59.24
75424;BME280;64005;55.160;36.002;2023-07-20T06:29:40;98054.56;;;19.19;58.04
75424;BME280;64005;55.160;36.002;2023-07-20T06:32:08;98046.69;;;19.00;58.33
75424;BME280;64005;55.160;36.002;2023-07-20T06:34:35;98051.47;;;19.07;58.42
75424;BME280;64005;55.160;36.002;2023-07-20T06:37:04;98050.09;;;19.22;58.64
75424;BME280;64005;55.160;36.002;2023-07-20T06:39:32;98049.50;;;19.44;58.63
75424;BME280;64005;55.160;36.002;2023-07-20T06:41:59;98052.16;;;19.62;57.76
75424;BME280;64005;55.160;36.002;2023-07-20T06:44:28;98051.25;;;19.72;57.42
75424;BME280;64005;55.160;36.002;2023-07-20T06:46:55;98052.50;;;19.68;56.75
75424;BME280;64005;55.160;36.002;2023-07-20T06:49:26;98057.91;;;19.52;56.57
75424;BME280;64005;55.160;36.002;2023-07-20T06:51:54;98055.69;;;19.70;56.67
75424;BME280;64005;55.160;36.002;2023-07-20T06:54:21;98050.22;;;19.90;56.46
75424;BME280;64005;55.160;36.002;2023-07-20T06:56:48;98055.59;;;19.80;56.57
75424;BME280;64005;55.160;36.002;2023-07-20T06:59:16;98052.59;;;19.95;56.90
75424;BME280;64005;55.160;36.002;2023-07-20T07:01:45;98048.22;;;19.90;55.66
75424;BME280;64005;55.160;36.002;2023-07-20T07:04:12;98046.75;;;20.09;55.69
75424;BME280;64005;55.160;36.002;2023-07-20T07:06:40;98057.50;;;20.21;55.75
75424;BME280;64005;55.160;36.002;2023-07-20T07:09:08;98062.56;;;20.03;55.86
75424;BME280;64005;55.160;36.002;2023-07-20T07:11:35;98064.25;;;19.97;56.44
75424;BME280;64005;55.160;36.002;2023-07-20T07:14:03;98058.13;;;20.05;56.15
75424;BME280;64005;55.160;36.002;2023-07-20T07:16:30;98052.00;;;20.10;56.13
75424;BME280;64005;55.160;36.002;2023-07-20T07:18:59;98053.19;;;20.13;54.33
75424;BME280;64005;55.160;36.002;2023-07-20T07:21:27;98052.47;;;20.05;54.68
75424;BME280;64005;55.160;36.002;2023-07-20T07:23:55;98053.50;;;20.18;54.43
75424;BME280;64005;55.160;36.002;2023-07-20T07:26:25;98046.56;;;20.27;54.20
75424;BME280;64005;55.160;36.002;2023-07-20T07:28:52;98044.72;;;20.70;52.55
75424;BME280;64005;55.160;36.002;2023-07-20T07:31:20;98058.84;;;20.97;51.80
75424;BME280;64005;55.160;36.002;2023-07-20T07:33:49;98052.88;;;21.18;51.07
75424;BME280;64005;55.160;36.002;2023-07-20T07:36:18;98050.84;;;21.19;50.76
75424;BME280;64005;55.160;36.002;2023-07-20T07:38:45;98053.13;;;21.27;50.59
75424;BME280;64005;55.160;36.002;2023-07-20T07:41:14;98037.91;;;21.64;50.20
75424;BME280;64005;55.160;36.002;2023-07-20T07:43:41;98066.97;;;22.08;50.13
75424;BME280;64005;55.160;36.002;2023-07-20T07:46:09;98061.97;;;21.96;48.58
75424;BME280;64005;55.160;36.002;2023-07-20T07:48:36;98053.81;;;21.78;48.96
75424;BME280;64005;55.160;36.002;2023-07-20T07:51:04;98056.66;;;21.78;49.13
75424;BME280;64005;55.160;36.002;2023-07-20T07:53:33;98053.84;;;22.17;49.25
75424;BME280;64005;55.160;36.002;2023-07-20T07:56:01;98065.84;;;22.61;48.33
75424;BME280;64005;55.160;36.002;2023-07-20T07:58:29;98053.19;;;22.85;47.41
75424;BME280;64005;55.160;36.002;2023-07-20T08:00:57;98055.75;;;23.12;47.75
75424;BME280;64005;55.160;36.002;2023-07-20T08:03:24;98052.66;;;23.23;46.49
75424;BME280;64005;55.160;36.002;2023-07-20T08:05:54;98067.81;;;23.16;46.59
75424;BME280;64005;55.160;36.002;2023-07-20T08:08:21;98061.78;;;23.30;46.15
75424;BME280;64005;55.160;36.002;2023-07-20T08:10:53;98068.97;;;23.35;45.83
75424;BME280;64005;55.160;36.002;2023-07-20T08:13:21;98070.03;;;23.09;45.68
75424;BME280;64005;55.160;36.002;2023-07-20T08:15:50;98068.16;;;22.86;46.21
75424;BME280;64005;55.160;36.002;2023-07-20T08:18:18;98066.31;;;22.59;46.07
75424;BME280;64005;55.160;36.002;2023-07-20T08:20:46;98065.75;;;22.29;46.85
75424;BME280;64005;55.160;36.002;2023-07-20T08:23:15;98074.09;;;22.36;47.03
75424;BME280;64005;55.160;36.002;2023-07-20T08:25:42;98065.31;;;22.30;45.82
75424;BME280;64005;55.160;36.002;2023-07-20T08:28:13;98062.72;;;22.75;46.12
75424;BME280;64005;55.160;36.002;2023-07-20T08:30:41;98064.34;;;22.92;45.63
75424;BME280;64005;55.160;36.002;2023-07-20T08:33:09;98074.22;;;22.48;45.59
75424;BME280;64005;55.160;36.002;2023-07-20T08:35:37;98066.03;;;22.14;46.21
75424;BME280;64005;55.160;36.002;2023-07-20T08:38:05;98064.66;;;22.03;47.17
75424;BME280;64005;55.160;36.002;2023-07-20T08:40:33;98074.47;;;21.98;47.17
75424;BME280;64005;55.160;36.002;2023-07-20T08:43:01;98067.59;;;21.99;47.16
75424;BME280;64005;55.160;36.002;2023-07-20T08:45:33;98070.13;;;21.70;46.88
75424;BME280;64005;55.160;36.002;2023-07-20T08:48:03;98065.59;;;21.53;47.09
75424;BME280;64005;55.160;36.002;2023-07-20T08:50:33;98084.25;;;21.51;47.66
75424;BME280;64005;55.160;36.002;2023-07-20T08:53:02;98078.81;;;21.36;47.84
75424;BME280;64005;55.160;36.002;2023-07-20T08:55:30;98081.09;;;21.22;48.01
75424;BME280;64005;55.160;36.002;2023-07-20T08:57:59;98083.38;;;21.03;48.26
75424;BME280;64005;55.160;36.002;2023-07-20T09:00:26;98084.47;;;20.86;48.48
75424;BME280;64005;55.160;36.002;2023-07-20T09:02:57;98089.22;;;20.66;48.79
75424;BME280;64005;55.160;36.002;2023-07-20T09:05:26;98084.09;;;20.57;49.21
75424;BME280;64005;55.160;36.002;2023-07-20T09:07:54;98087.41;;;20.79;49.44
75424;BME280;64005;55.160;36.002;2023-07-20T09:10:23;98081.78;;;21.02;49.46
75424;BME280;64005;55.160;36.002;2023-07-20T09:12:50;98078.47;;;21.08;49.30
75424;BME280;64005;55.160;36.002;2023-07-20T09:15:19;98072.28;;;20.89;50.07
75424;BME280;64005;55.160;36.002;2023-07-20T09:17:47;98077.16;;;21.16;50.21
75424;BME280;64005;55.160;36.002;2023-07-20T09:20:17;98070.34;;;21.60;49.42
75424;BME280;64005;55.160;36.002;2023-07-20T09:22:45;98061.97;;;21.96;49.15
75424;BME280;64005;55.160;36.002;2023-07-20T09:25:13;98067.50;;;22.23;48.66
75424;BME280;64005;55.160;36.002;2023-07-20T09:27:42;98077.97;;;22.06;48.63
75424;BME280;64005;55.160;36.002;2023-07-20T09:30:11;98068.44;;;21.53;48.28
75424;BME280;64005;55.160;36.002;2023-07-20T09:32:42;98093.97;;;21.26;49.55
75424;BME280;64005;55.160;36.002;2023-07-20T09:35:21;98072.81;;;21.08;49.51
75424;BME280;64005;55.160;36.002;2023-07-20T09:37:50;98079.94;;;20.92;48.68
75424;BME280;64005;55.160;36.002;2023-07-20T09:40:19;98077.06;;;21.46;48.63
75424;BME280;64005;55.160;36.002;2023-07-20T09:42:47;98076.94;;;22.16;47.21
75424;BME280;64005;55.160;36.002;2023-07-20T09:45:15;98070.22;;;22.66;47.08
75424;BME280;64005;55.160;36.002;2023-07-20T09:47:42;98071.88;;;22.99;45.51
75424;BME280;64005;55.160;36.002;2023-07-20T09:50:10;98063.13;;;22.93;45.41
75424;BME280;64005;55.160;36.002;2023-07-20T09:52:41;98073.19;;;22.78;45.64
75424;BME280;64005;55.160;36.002;2023-07-20T09:55:10;98088.31;;;22.72;46.09
75424;BME280;64005;55.160;36.002;2023-07-20T09:57:38;98083.22;;;22.63;45.58
75424;BME280;64005;55.160;36.002;2023-07-20T10:00:07;98077.91;;;23.01;44.53
75424;BME280;64005;55.160;36.002;2023-07-20T10:02:43;98081.81;;;22.91;44.69
75424;BME280;64005;55.160;36.002;2023-07-20T10:05:12;98077.25;;;22.77;44.54
75424;BME280;64005;55.160;36.002;2023-07-20T10:07:47;98061.34;;;22.64;45.13
75424;BME280;64005;55.160;36.002;2023-07-20T10:10:17;98091.28;;;22.65;45.46
75424;BME280;64005;55.160;36.002;2023-07-20T10:12:48;98089.56;;;22.51;45.41
75424;BME280;64005;55.160;36.002;2023-07-20T10:15:17;98083.91;;;22.51;45.80
75424;BME280;64005;55.160;36.002;2023-07-20T10:17:54;98080.38;;;22.63;44.99
75424;BME280;64005;55.160;36.002;2023-07-20T10:20:23;98077.47;;;23.03;44.84
75424;BME280;64005;55.160;36.002;2023-07-20T10:22:54;98075.34;;;23.39;44.11
75424;BME280;64005;55.160;36.002;2023-07-20T10:25:23;98068.06;;;23.70;43.64
75424;BME280;64005;55.160;36.002;2023-07-20T10:27:51;98081.72;;;23.75;43.13
75424;BME280;64005;55.160;36.002;2023-07-20T10:30:18;98082.00;;;23.32;42.74
75424;BME280;64005;55.160;36.002;2023-07-20T10:32:47;98035.66;;;22.71;43.33
75424;BME280;64005;55.160;36.002;2023-07-20T10:35:16;98077.97;;;22.81;43.38
75424;BME280;64005;55.160;36.002;2023-07-20T10:37:55;98071.44;;;22.84;44.07
75424;BME280;64005;55.160;36.002;2023-07-20T10:40:28;98057.94;;;22.88;43.13
75424;BME280;64005;55.160;36.002;2023-07-20T10:42:58;98078.81;;;23.30;43.09
75424;BME280;64005;55.160;36.002;2023-07-20T10:45:44;98062.84;;;23.36;42.21
75424;BME280;64005;55.160;36.002;2023-07-20T10:48:16;98082.03;;;23.49;41.75
75424;BME280;64005;55.160;36.002;2023-07-20T10:50:46;98080.56;;;23.41;41.70
75424;BME280;64005;55.160;36.002;2023-07-20T10:53:35;98083.69;;;23.30;42.50
75424;BME280;64005;55.160;36.002;2023-07-20T10:56:11;98093.78;;;23.15;42.72
75424;BME280;64005;55.160;36.002;2023-07-20T10:58:39;98088.38;;;23.20;42.62
75424;BME280;64005;55.160;36.002;2023-07-20T11:01:07;98095.41;;;23.32;42.87
75424;BME280;64005;55.160;36.002;2023-07-20T11:03:37;98101.78;;;23.36;42.98
75424;BME280;64005;55.160;36.002;2023-07-20T11:06:31;98098.50;;;23.37;43.06
75424;BME280;64005;55.160;36.002;2023-07-20T11:09:08;98095.22;;;23.23;42.78
75424;BME280;64005;55.160;36.002;2023-07-20T11:11:38;98091.38;;;22.97;42.90
75424;BME280;64005;55.160;36.002;2023-07-20T11:14:07;98086.81;;;23.52;42.54
75424;BME280;64005;55.160;36.002;2023-07-20T11:16:37;98099.56;;;23.76;42.28
75424;BME280;64005;55.160;36.002;2023-07-20T11:19:05;98104.31;;;23.95;41.52
75424;BME280;64005;55.160;36.002;2023-07-20T11:21:37;98088.78;;;24.00;41.29
75424;BME280;64005;55.160;36.002;2023-07-20T11:24:07;98091.25;;;23.98;41.47
75424;BME280;64005;55.160;36.002;2023-07-20T11:26:47;98060.59;;;23.76;41.55
75424;BME280;64005;55.160;36.002;2023-07-20T11:29:16;98089.00;;;23.60;41.27
75424;BME280;64005;55.160;36.002;2023-07-20T11:31:44;98096.91;;;23.36;42.38
75424;BME280;64005;55.160;36.002;2023-07-20T11:34:13;98099.72;;;23.04;42.68
75424;BME280;64005;55.160;36.002;2023-07-20T11:36:41;98098.63;;;22.82;43.50
75424;BME280;64005;55.160;36.002;2023-07-20T11:39:11;98101.66;;;22.71;43.21
75424;BME280;64005;55.160;36.002;2023-07-20T11:41:43;98107.50;;;22.64;42.92
75424;BME280;64005;55.160;36.002;2023-07-20T11:44:12;98101.03;;;22.83;43.38
75424;BME280;64005;55.160;36.002;2023-07-20T11:46:41;98052.66;;;22.71;42.64
75424;BME280;64005;55.160;36.002;2023-07-20T11:49:10;98104.84;;;22.93;43.17
75424;BME280;64005;55.160;36.002;2023-07-20T11:51:38;98105.91;;;22.63;43.56
75424;BME280;64005;55.160;36.002;2023-07-20T11:54:08;98117.91;;;22.31;44.22
75424;BME280;64005;55.160;36.002;2023-07-20T11:56:41;98105.19;;;21.76;44.42
75424;BME280;64005;55.160;36.002;2023-07-20T11:59:09;98113.16;;;21.38;44.80
75424;BME280;64005;55.160;36.002;2023-07-20T12:01:38;98113.16;;;21.12;45.27
75424;BME280;64005;55.160;36.002;2023-07-20T12:04:05;98121.53;;;20.92;45.67
75424;BME280;64005;55.160;36.002;2023-07-20T12:06:33;98119.13;;;20.90;45.83
75424;BME280;64005;55.160;36.002;2023-07-20T12:09:01;98111.91;;;21.16;45.59
75424;BME280;64005;55.160;36.002;2023-07-20T12:11:34;98088.00;;;21.44;45.25
75424;BME280;64005;55.160;36.002;2023-07-20T12:14:04;98115.72;;;21.99;44.46
75424;BME280;64005;55.160;36.002;2023-07-20T12:16:31;98110.59;;;22.34;44.50
75424;BME280;64005;55.160;36.002;2023-07-20T12:19:03;98115.94;;;22.48;43.46
75424;BME280;64005;55.160;36.002;2023-07-20T12:21:33;98121.25;;;22.66;43.54
75424;BME280;64005;55.160;36.002;2023-07-20T12:24:01;98108.19;;;22.52;42.74
75424;BME280;64005;55.160;36.002;2023-07-20T12:26:29;98113.91;;;22.29;43.56
75424;BME280;64005;55.160;36.002;2023-07-20T12:28:57;98111.97;;;22.06;43.74
75424;BME280;64005;55.160;36.002;2023-07-20T12:31:27;98107.66;;;21.98;43.90
75424;BME280;64005;55.160;36.002;2023-07-20T12:33:57;98107.66;;;22.37;43.47
75424;BME280;64005;55.160;36.002;2023-07-20T12:36:26;98116.06;;;22.60;42.80
75424;BME280;64005;55.160;36.002;2023-07-20T12:38:53;98118.91;;;22.41;42.65
75424;BME280;64005;55.160;36.002;2023-07-20T12:41:21;98121.69;;;22.25;43.00
75424;BME280;64005;55.160;36.002;2023-07-20T12:43:48;98120.59;;;22.38;43.21
75424;BME280;64005;55.160;36.002;2023-07-20T12:46:15;98116.97;;;22.57;42.27
75424;BME280;64005;55.160;36.002;2023-07-20T12:48:44;98116.25;;;22.73;42.06
75424;BME280;64005;55.160;36.002;2023-07-20T12:51:12;98118.94;;;22.96;42.11
75424;BME280;64005;55.160;36.002;2023-07-20T12:53:39;98118.44;;;23.18;41.93
75424;BME280;64005;55.160;36.002;2023-07-20T12:56:07;98101.00;;;23.19;41.86
75424;BME280;64005;55.160;36.002;2023-07-20T12:58:34;98110.03;;;23.30;41.57
75424;BME280;64005;55.160;36.002;2023-07-20T13:01:02;98102.16;;;23.54;42.34